Morocco, Indiana
Current Conditions -  °F | °C
As of 7:35 AM on Monday 24 Nov 2014 (Local Time) from KRZL Reporting Station
Light Rain Light Rain  
Wind Chill: 37°   Ceiling: 400
Heat Index: 45°   Visibility: 4mi
Dew Point: 45°   Wind: 20mph
Humidity: 100%   Direction: 250°WSW
Pressure: 29.13"   Gusts: 30mph
Location:  40.95°N, 87.45°W
Report Text: KRZL 241335Z AUTO 25017G26KT 4SM -RA OVC004 07/07 A2913 RMK AO2 P0003
Loading
Personal Weather Stations






























Interactive Weather Map New forecast layout! Learn more

10-Day Weather Forecast

Advertisements
Track Severe Weather on mobile